Time;durP1;ratioP1;P1;durP2;ratioP2;P2;SDS_P1;SDS_P2;PMS_P1;PMS_P2;Temp;Humidity;BMP_temperature;BMP_pressure;BME280_temperature;BME280_humidity;BME280_pressure;Samples;Min_cycle;Max_cycle;Signal;HPM_P1;HPM_P2
2023/05/09 17:41:57;;;;;;;;;20.50;18.50;;;;;;;;5102249;27;13441;-68
2023/05/09 17:44:23;;;;;;;;;20.50;18.75;;;;;;;;5105936;28;10382;-68
2023/05/09 17:46:48;;;;;;;;;18.00;17.50;;;;;;;;5106186;28;8854;-68
2023/05/09 17:49:14;;;;;;;;;18.75;16.50;;;;;;;;5126127;27;9622;-74
2023/05/09 17:51:39;;;;;;;;;17.25;13.50;;;;;;;;5108295;28;8824;-69
2023/05/09 17:54:04;;;;;;;;;17.25;16.00;;;;;;;;5107869;28;8930;-66
2023/05/09 17:56:30;;;;;;;;;15.25;15.25;;;;;;;;5108126;28;8899;-67
2023/05/09 17:58:58;;;;;;;;;11.50;11.50;;;;;;;;5106471;28;8820;-65
2023/05/09 18:01:23;;;;;;;;;10.75;9.50;;;;;;;;5105749;28;8837;-69
2023/05/09 18:03:49;;;;;;;;;12.00;12.00;;;;;;;;5096553;28;9621;-74
2023/05/09 18:06:14;;;;;;;;;11.00;11.00;;;;;;;;5087556;28;8766;-70
2023/05/09 18:08:39;;;;;;;;;10.50;10.50;;;;;;;;5108592;27;8789;-73
2023/05/09 18:11:05;;;;;;;;;12.00;12.00;;;;;;;;5126911;27;8847;-72
2023/05/09 18:13:30;;;;;;;;;12.33;10.67;;;;;;;;5113528;27;8819;-73
2023/05/09 18:15:58;;;;;;;;;11.00;11.00;;;;;;;;5119413;27;8813;-74
2023/05/09 18:18:27;;;;;;;;;13.50;13.50;;;;;;;;5124511;27;9654;-72
2023/05/09 18:20:52;;;;;;;;;16.25;13.50;;;;;;;;5114504;28;9504;-74
2023/05/09 18:23:17;;;;;;;;;18.00;15.00;;;;;;;;5107425;28;9476;-69
2023/05/09 18:25:43;;;;;;;;;16.75;16.25;;;;;;;;5107434;28;8796;-71
2023/05/09 18:28:08;;;;;;;;;12.00;12.00;;;;;;;;5106129;28;8916;-74
2023/05/09 18:30:35;;;;;;;;;32.50;30.00;;;;;;;;5107322;28;8812;-73
2023/05/09 18:33:01;;;;;;;;;31.25;30.50;;;;;;;;5107029;28;8804;-73
2023/05/09 18:35:26;;;;;;;;;18.50;14.50;;;;;;;;5106806;28;10632;-73
2023/05/09 18:37:52;;;;;;;;;14.25;14.00;;;;;;;;5109816;27;9658;-73
2023/05/09 18:40:17;;;;;;;;;16.00;13.50;;;;;;;;5107116;28;8834;-73
2023/05/09 18:42:43;;;;;;;;;13.25;11.50;;;;;;;;5107160;28;8815;-76
2023/05/09 18:45:09;;;;;;;;;13.75;13.00;;;;;;;;5116548;27;8821;-76
2023/05/09 18:47:34;;;;;;;;;12.00;12.00;;;;;;;;5100283;27;8800;-76
2023/05/09 18:50:00;;;;;;;;;12.50;9.50;;;;;;;;5113384;28;11858;-73
2023/05/09 18:52:26;;;;;;;;;11.25;11.00;;;;;;;;5098460;28;8795;-70
2023/05/09 18:54:52;;;;;;;;;12.50;12.50;;;;;;;;5093030;28;9970;-68
2023/05/09 18:57:18;;;;;;;;;14.75;12.75;;;;;;;;5093584;28;8796;-68
2023/05/09 18:59:44;;;;;;;;;12.00;11.00;;;;;;;;5093370;28;8784;-68
2023/05/09 19:02:10;;;;;;;;;17.50;15.50;;;;;;;;5095587;28;9886;-68
2023/05/09 19:04:35;;;;;;;;;14.25;13.00;;;;;;;;5097328;28;10644;-65
2023/05/09 19:07:00;;;;;;;;;12.75;11.00;;;;;;;;5099016;28;8824;-69
2023/05/09 19:09:25;;;;;;;;;14.50;12.50;;;;;;;;5092206;28;8900;-68
2023/05/09 19:11:51;;;;;;;;;20.00;17.50;;;;;;;;5101350;28;8833;-70
2023/05/09 19:14:16;;;;;;;;;23.25;20.50;;;;;;;;5095665;28;8822;-69
2023/05/09 19:16:41;;;;;;;;;17.75;17.00;;;;;;;;5092830;28;8831;-68
2023/05/09 19:19:07;;;;;;;;;17.50;15.00;;;;;;;;5091585;28;9220;-67
2023/05/09 19:21:34;;;;;;;;;21.00;17.25;;;;;;;;5093055;28;8815;-68
2023/05/09 19:23:59;;;;;;;;;17.00;17.00;;;;;;;;5091197;28;10082;-68
2023/05/09 19:26:24;;;;;;;;;18.00;16.25;;;;;;;;5092828;28;10026;-67
2023/05/09 19:28:50;;;;;;;;;14.50;13.25;;;;;;;;5092759;28;8783;-70
2023/05/09 19:31:15;;;;;;;;;18.50;16.50;;;;;;;;5092817;28;8839;-67
2023/05/09 19:33:41;;;;;;;;;19.25;17.50;;;;;;;;5090948;28;8826;-68
2023/05/09 19:36:06;;;;;;;;;12.25;11.50;;;;;;;;5092715;28;8776;-72
2023/05/09 19:38:33;;;;;;;;;9.75;9.75;;;;;;;;5090889;28;10050;-68
2023/05/09 19:40:58;;;;;;;;;18.00;16.75;;;;;;;;5091128;28;8816;-68
2023/05/09 19:43:23;;;;;;;;;12.25;10.50;;;;;;;;5089113;28;10013;-68
2023/05/09 19:45:49;;;;;;;;;11.75;11.00;;;;;;;;5092461;28;8817;-68
2023/05/09 19:48:14;;;;;;;;;39.75;33.75;;;;;;;;5091994;28;8806;-69
2023/05/09 19:50:40;;;;;;;;;20.50;16.00;;;;;;;;5091982;28;8935;-69
2023/05/09 19:53:06;;;;;;;;;28.50;27.25;;;;;;;;5090039;28;8820;-68
2023/05/09 19:55:31;;;;;;;;;20.75;20.50;;;;;;;;5092017;28;10493;-68
2023/05/09 19:57:56;;;;;;;;;12.00;12.00;;;;;;;;5100820;28;8809;-67
2023/05/09 20:00:21;;;;;;;;;12.50;11.75;;;;;;;;5090586;28;8812;-66
2023/05/09 20:02:47;;;;;;;;;15.00;13.25;;;;;;;;5088919;28;8809;-67
2023/05/09 20:05:12;;;;;;;;;11.25;10.25;;;;;;;;5089871;28;8819;-67
2023/05/09 20:07:38;;;;;;;;;14.75;11.50;;;;;;;;5087895;28;8819;-67
2023/05/09 20:10:03;;;;;;;;;13.50;12.75;;;;;;;;5090084;28;9542;-67
2023/05/09 20:12:28;;;;;;;;;11.00;10.25;;;;;;;;5091736;28;8900;-67
2023/05/09 20:14:54;;;;;;;;;13.00;12.00;;;;;;;;5090609;28;9506;-70
2023/05/09 20:17:19;;;;;;;;;11.50;10.50;;;;;;;;5089605;28;8807;-66
2023/05/09 20:19:44;;;;;;;;;9.75;9.75;;;;;;;;5090456;28;8806;-65
2023/05/09 20:22:10;;;;;;;;;9.00;9.00;;;;;;;;5090460;28;8799;-65
2023/05/09 20:24:35;;;;;;;;;9.50;9.50;;;;;;;;5089857;28;8902;-65
2023/05/09 20:27:01;;;;;;;;;7.00;7.00;;;;;;;;5090394;28;8784;-66
2023/05/09 20:29:27;;;;;;;;;9.00;7.25;;;;;;;;5090242;28;8800;-66
2023/05/09 20:31:52;;;;;;;;;7.25;7.25;;;;;;;;5089990;28;9853;-69
2023/05/09 20:34:19;;;;;;;;;10.00;8.25;;;;;;;;5088471;28;8864;-66
2023/05/09 20:36:50;;;;;;;;;8.00;7.00;;;;;;;;5089477;28;8876;-66
2023/05/09 20:39:16;;;;;;;;;12.25;10.75;;;;;;;;5089746;28;9890;-67
2023/05/09 20:41:42;;;;;;;;;12.00;12.00;;;;;;;;5089818;28;10203;-65
2023/05/09 20:44:07;;;;;;;;;16.50;15.75;;;;;;;;5088313;28;8800;-65
2023/05/09 20:46:33;;;;;;;;;16.00;13.00;;;;;;;;5088886;28;11383;-69
2023/05/09 20:48:58;;;;;;;;;14.75;13.50;;;;;;;;5088760;28;8894;-72
2023/05/09 20:51:23;;;;;;;;;15.75;14.75;;;;;;;;5084299;28;8826;-71
2023/05/09 20:53:49;;;;;;;;;13.00;12.75;;;;;;;;5092572;28;8904;-72
2023/05/09 20:56:15;;;;;;;;;6.75;6.75;;;;;;;;5093229;28;8902;-73
2023/05/09 20:58:40;;;;;;;;;9.00;8.75;;;;;;;;5086648;28;8815;-73
2023/05/09 21:01:05;;;;;;;;;7.50;7.00;;;;;;;;5090727;28;9921;-72
2023/05/09 21:03:31;;;;;;;;;9.00;8.00;;;;;;;;5098806;28;9623;-72
2023/05/09 21:05:56;;;;;;;;;10.75;8.75;;;;;;;;5092783;28;8869;-72
2023/05/09 21:08:22;;;;;;;;;8.50;8.50;;;;;;;;5088762;28;8787;-71
2023/05/09 21:10:49;;;;;;;;;7.75;7.75;;;;;;;;5089943;28;8804;-67
2023/05/09 21:13:14;;;;;;;;;7.00;7.00;;;;;;;;5090840;28;8810;-67
2023/05/09 21:15:40;;;;;;;;;34.75;33.25;;;;;;;;5089119;28;9898;-68
2023/05/09 21:18:05;;;;;;;;;17.75;16.75;;;;;;;;5091098;28;8775;-69
